Time;durP1;ratioP1;P1;durP2;ratioP2;P2;SDS_P1;SDS_P2;PMS_P1;PMS_P2;Temp;Humidity;BMP_temperature;BMP_pressure;BME280_temperature;BME280_humidity;BME280_pressure;Samples;Min_cycle;Max_cycle;Signal;HPM_P1;HPM_P2
2022/11/06 00:00:23;;;;;;;11.57;2.45;;;11.20;99.90;;;;;;4109563;28;20222;-93
2022/11/06 00:02:32;;;;;;;6.82;2.25;;;11.20;99.90;;;;;;4141549;28;20219;-95
2022/11/06 00:04:32;;;;;;;14.13;2.72;;;11.20;99.90;;;;;;4128525;28;20174;-94
2022/11/06 00:06:46;;;;;;;9.00;2.55;;;11.30;99.90;;;;;;4141769;28;20168;-96
2022/11/06 00:08:50;;;;;;;10.63;2.40;;;11.40;99.90;;;;;;4127859;28;20182;-96
2022/11/06 00:10:51;;;;;;;14.32;2.58;;;11.30;99.90;;;;;;4141821;28;20173;-95
2022/11/06 00:12:52;;;;;;;17.48;2.60;;;11.30;99.90;;;;;;4129548;28;20194;-96
2022/11/06 00:14:53;;;;;;;9.60;2.47;;;11.30;99.90;;;;;;4129171;28;20241;-96
2022/11/06 00:16:54;;;;;;;7.95;2.20;;;11.30;99.90;;;;;;4144727;28;20200;-94
2022/11/06 00:18:58;;;;;;;14.80;2.58;;;11.20;99.90;;;;;;4129185;28;20174;-94
2022/11/06 00:21:04;;;;;;;11.07;3.05;;;11.20;99.90;;;;;;4150745;28;20241;-93
2022/11/06 00:23:05;;;;;;;10.50;2.15;;;11.30;99.90;;;;;;4129744;28;20267;-96
2022/11/06 00:25:06;;;;;;;13.40;2.50;;;11.40;99.90;;;;;;4163731;28;20177;-96
2022/11/06 00:27:07;;;;;;;5.82;2.28;;;11.30;99.90;;;;;;4147309;28;20238;-96
2022/11/06 00:29:13;;;;;;;14.65;2.95;;;11.20;99.90;;;;;;4145944;28;20194;-92
2022/11/06 00:31:35;;;;;;;9.82;2.53;;;11.10;99.90;;;;;;4131815;28;20170;-94
2022/11/06 00:33:39;;;;;;;6.45;2.30;;;11.10;99.90;;;;;;4146074;28;20205;-92
2022/11/06 00:35:43;;;;;;;8.52;2.13;;;11.20;99.90;;;;;;4147538;28;20177;-96
2022/11/06 00:37:47;;;;;;;9.48;2.05;;;11.20;99.90;;;;;;4132732;28;20146;-96
2022/11/06 00:39:47;;;;;;;13.50;2.20;;;11.30;99.90;;;;;;4131923;28;20174;-93
2022/11/06 00:41:52;;;;;;;10.82;2.08;;;11.40;99.90;;;;;;4162480;28;20320;-95
2022/11/06 00:44:01;;;;;;;9.68;1.88;;;11.40;99.90;;;;;;4146176;28;20666;-96
2022/11/06 00:46:03;;;;;;;7.97;2.08;;;11.40;99.90;;;;;;4161114;28;20188;-96
2022/11/06 00:48:04;;;;;;;10.57;2.00;;;11.40;99.90;;;;;;4161851;28;20212;-93
2022/11/06 00:50:25;;;;;;;12.30;2.30;;;11.40;99.90;;;;;;4159928;28;20181;-95
2022/11/06 00:52:28;;;;;;;11.95;2.40;;;11.40;99.90;;;;;;4162803;28;20185;-95
2022/11/06 00:54:34;;;;;;;10.68;2.17;;;11.50;99.90;;;;;;4158584;28;20183;-95
2022/11/06 00:56:36;;;;;;;9.63;1.88;;;11.50;99.90;;;;;;4128537;28;20200;-95
2022/11/06 00:58:37;;;;;;;15.40;2.20;;;11.40;99.90;;;;;;4128685;28;20182;-94
2022/11/06 01:00:38;;;;;;;12.27;2.25;;;11.40;99.90;;;;;;4163103;28;20172;-95
2022/11/06 01:02:41;;;;;;;9.40;2.00;;;11.50;99.90;;;;;;4126265;28;20717;-95
2022/11/06 01:04:42;;;;;;;9.32;2.13;;;11.50;99.90;;;;;;4129934;28;20178;-95
2022/11/06 01:06:46;;;;;;;11.13;2.38;;;11.40;99.90;;;;;;4144947;28;20170;-96
2022/11/06 01:08:57;;;;;;;16.88;2.15;;;11.50;99.90;;;;;;4146215;28;20178;-94
2022/11/06 01:11:21;;;;;;;12.55;2.40;;;11.40;99.90;;;;;;4143967;28;20300;-95
2022/11/06 01:13:22;;;;;;;16.63;2.25;;;11.50;99.90;;;;;;4145842;28;20204;-92
2022/11/06 01:15:24;;;;;;;12.45;2.08;;;11.50;99.90;;;;;;4143709;28;20186;-96
2022/11/06 01:17:34;;;;;;;7.88;2.17;;;11.50;99.90;;;;;;4161030;28;20183;-95
2022/11/06 01:19:35;;;;;;;8.48;1.80;;;11.70;99.90;;;;;;4132791;28;20185;-96
2022/11/06 01:21:39;;;;;;;9.13;2.30;;;11.60;99.90;;;;;;4146048;28;20221;-94
2022/11/06 01:23:42;;;;;;;11.48;2.00;;;11.30;99.90;;;;;;4148533;28;20177;-94
2022/11/06 01:25:43;;;;;;;15.82;2.67;;;11.40;99.90;;;;;;4163035;28;20196;-96
2022/11/06 01:27:44;;;;;;;11.27;2.17;;;11.40;99.90;;;;;;4131610;28;20659;-95
2022/11/06 01:29:45;;;;;;;9.25;2.28;;;11.20;99.90;;;;;;4131889;28;20234;-95
2022/11/06 01:31:50;;;;;;;16.02;2.60;;;11.20;99.90;;;;;;4134661;28;20162;-95
2022/11/06 01:33:55;;;;;;;9.70;2.45;;;11.30;99.90;;;;;;4166704;28;20180;-94
2022/11/06 01:36:04;;;;;;;16.60;2.60;;;11.30;99.90;;;;;;4145947;28;20185;-93
2022/11/06 01:38:05;;;;;;;9.55;2.45;;;11.30;99.90;;;;;;4133795;28;20174;-95
2022/11/06 01:40:10;;;;;;;14.20;2.30;;;11.30;99.90;;;;;;4165841;28;20177;-96
2022/11/06 01:42:35;;;;;;;11.80;2.35;;;11.20;99.90;;;;;;4165483;28;20205;-93
2022/11/06 01:44:59;;;;;;;10.00;2.70;;;11.10;99.90;;;;;;4165039;28;20176;-94
2022/11/06 01:47:27;;;;;;;15.60;2.50;;;11.10;99.90;;;;;;4132862;28;20242;-95
2022/11/06 01:49:36;;;;;;;7.63;2.60;;;11.20;99.90;;;;;;4130155;28;20186;-94
2022/11/06 01:52:01;;;;;;;6.63;2.30;;;11.30;99.90;;;;;;4163101;28;20204;-95
2022/11/06 01:54:08;;;;;;;13.13;2.85;;;11.10;99.90;;;;;;4143874;28;20185;-96
2022/11/06 01:56:19;;;;;;;12.80;2.85;;;11.00;99.90;;;;;;4164203;28;20196;-92
2022/11/06 01:58:26;;;;;;;14.77;3.10;;;10.90;99.90;;;;;;4163418;28;20215;-95
2022/11/06 02:00:29;;;;;;;16.45;2.67;;;11.10;99.90;;;;;;4162176;28;20292;-94
2022/11/06 02:02:32;;;;;;;10.30;2.25;;;11.10;99.90;;;;;;4144410;28;20316;-95
2022/11/06 02:05:05;;;;;;;10.68;2.58;;;11.20;99.90;;;;;;4147649;28;20165;-95
2022/11/06 02:07:07;;;;;;;16.85;2.97;;;11.30;99.90;;;;;;4147883;28;20255;-95
2022/11/06 02:09:10;;;;;;;19.83;2.58;;;11.20;99.90;;;;;;4142414;28;20566;-95
2022/11/06 02:11:11;;;;;;;8.02;2.50;;;11.20;99.90;;;;;;4130424;28;20170;-95
2022/11/06 02:13:19;;;;;;;6.45;2.10;;;11.20;99.90;;;;;;4143546;28;20204;-96
2022/11/06 02:15:42;;;;;;;16.23;2.40;;;11.20;99.90;;;;;;4126670;28;20177;-94
2022/11/06 02:18:21;;;;;;;13.20;2.40;;;11.20;99.90;;;;;;4132397;28;20231;-95
2022/11/06 02:20:33;;;;;;;8.40;2.05;;;11.20;99.90;;;;;;4143690;28;20204;-94
2022/11/06 02:22:55;;;;;;;13.60;2.33;;;11.20;99.90;;;;;;4129675;28;20217;-94
2022/11/06 02:25:13;;;;;;;8.52;2.53;;;11.40;99.90;;;;;;4145081;28;20201;-96
2022/11/06 02:27:21;;;;;;;8.32;1.95;;;11.40;99.90;;;;;;4141503;28;20249;-96
2022/11/06 02:30:06;;;;;;;9.75;2.33;;;11.50;99.90;;;;;;4127795;28;20201;-96
2022/11/06 02:32:19;;;;;;;12.90;2.03;;;11.40;99.90;;;;;;4145870;28;20638;-96
2022/11/06 02:34:27;;;;;;;10.32;2.28;;;11.40;99.90;;;;;;4142217;28;20641;-96
2022/11/06 02:36:39;;;;;;;20.63;2.38;;;11.40;99.90;;;;;;4145417;28;20181;-95
2022/11/06 02:38:48;;;;;;;7.93;2.10;;;11.20;99.90;;;;;;4129634;28;20154;-95
2022/11/06 02:40:54;;;;;;;9.73;2.22;;;11.10;99.90;;;;;;4130873;28;20213;-93
2022/11/06 02:42:58;;;;;;;11.27;2.30;;;11.00;99.90;;;;;;4127132;28;20218;-96
2022/11/06 02:45:09;;;;;;;8.02;2.25;;;11.20;99.90;;;;;;4128586;28;20174;-96
2022/11/06 02:47:20;;;;;;;12.50;2.42;;;11.20;99.90;;;;;;4146335;28;20220;-95
2022/11/06 02:49:29;;;;;;;11.32;2.63;;;11.20;99.90;;;;;;4165659;28;20144;-96
2022/11/06 02:51:42;;;;;;;9.88;2.45;;;11.30;99.90;;;;;;4131271;28;20188;-96
2022/11/06 02:53:54;;;;;;;10.88;2.25;;;11.30;99.90;;;;;;4164579;28;20172;-96
2022/11/06 02:56:23;;;;;;;9.63;2.58;;;11.20;99.90;;;;;;4164022;28;20184;-95
2022/11/06 02:58:40;;;;;;;13.75;2.58;;;11.20;99.90;;;;;;4162193;28;20181;-95
2022/11/06 03:00:52;;;;;;;9.07;2.35;;;11.20;99.90;;;;;;4159113;28;20184;-95
2022/11/06 03:03:08;;;;;;;9.05;2.17;;;11.30;99.90;;;;;;4159457;28;20336;-96
2022/11/06 03:05:29;;;;;;;15.68;2.72;;;11.30;99.90;;;;;;4124728;28;20665;-95
2022/11/06 03:07:37;;;;;;;15.50;2.88;;;11.30;99.90;;;;;;4123436;28;20198;-95
2022/11/06 03:11:41;;;;;;;7.93;2.10;;;11.30;99.90;;;;;;4126664;28;20171;-93
2022/11/06 03:14:08;;;;;;;12.68;2.60;;;11.30;99.90;;;;;;4146596;28;20220;-94
2022/11/06 03:16:29;;;;;;;9.40;2.08;;;11.40;99.90;;;;;;4158943;28;20235;-94
2022/11/06 03:18:45;;;;;;;9.57;2.50;;;11.40;99.90;;;;;;4127624;28;20196;-96
2022/11/06 03:21:14;;;;;;;12.20;2.60;;;11.40;99.90;;;;;;4159282;28;20181;-96
2022/11/06 03:23:23;;;;;;;11.88;3.47;;;11.20;99.90;;;;;;4080517;29;20231;-92
2022/11/06 03:25:29;;;;;;;9.52;3.40;;;11.40;99.90;;;;;;4134376;28;20190;-95
2022/11/06 03:27:57;;;;;;;8.45;3.10;;;11.40;99.90;;;;;;4143349;28;20193;-95
2022/11/06 03:30:00;;;;;;;14.90;3.60;;;11.30;99.90;;;;;;4127806;28;20213;-95
2022/11/06 03:32:19;;;;;;;13.27;3.97;;;11.20;99.90;;;;;;4129087;28;20190;-96
2022/11/06 03:34:28;;;;;;;16.25;4.43;;;11.20;99.90;;;;;;4142778;28;20184;-94
2022/11/06 03:36:46;;;;;;;16.05;4.07;;;11.20;99.90;;;;;;4143927;28;20658;-95
2022/11/06 03:39:29;;;;;;;18.05;4.57;;;11.20;99.90;;;;;;4160760;28;20329;-95
2022/11/06 03:41:44;;;;;;;14.32;4.18;;;11.20;99.90;;;;;;4144554;28;20180;-96
2022/11/06 03:43:53;;;;;;;18.90;3.83;;;11.10;99.90;;;;;;4147163;28;20260;-96
2022/11/06 03:45:56;;;;;;;11.07;3.38;;;11.00;99.90;;;;;;4130084;28;20194;-95
2022/11/06 03:48:10;;;;;;;11.00;4.10;;;10.90;99.90;;;;;;4161530;28;20731;-95
2022/11/06 03:50:43;;;;;;;11.90;3.55;;;10.90;99.90;;;;;;4162995;28;20169;-95
2022/11/06 03:52:54;;;;;;;11.63;4.13;;;11.10;99.90;;;;;;4143987;28;20173;-95
2022/11/06 03:55:17;;;;;;;19.08;4.55;;;11.10;99.90;;;;;;4143154;28;20184;-94
2022/11/06 03:57:25;;;;;;;12.80;4.10;;;11.20;99.90;;;;;;4161984;28;20208;-93
2022/11/06 03:59:34;;;;;;;14.32;4.32;;;11.20;99.90;;;;;;4158436;28;20172;-95
2022/11/06 04:01:52;;;;;;;19.02;4.35;;;11.20;99.90;;;;;;4160517;28;20160;-93
2022/11/06 04:04:13;;;;;;;22.55;5.00;;;11.00;99.90;;;;;;4129152;28;20210;-96
2022/11/06 04:06:49;;;;;;;14.05;4.32;;;11.00;99.90;;;;;;4164158;28;20181;-95
2022/11/06 04:14:32;;;;;;;11.80;3.15;;;11.00;99.90;;;;;;4146982;28;20276;-95
2022/11/06 04:16:45;;;;;;;15.75;2.88;;;11.10;99.90;;;;;;4159814;28;20181;-96
2022/11/06 04:18:45;;;;;;;12.27;3.05;;;11.00;99.90;;;;;;4131150;28;20165;-96
2022/11/06 04:29:36;;;;;;;12.25;2.42;;;10.90;99.90;;;;;;4160069;28;20259;-96
2022/11/06 04:32:10;;;;;;;10.18;2.33;;;10.90;99.90;;;;;;4097820;28;20267;-94
2022/11/06 04:35:02;;;;;;;12.88;2.40;;;10.90;99.90;;;;;;4145676;28;20173;-96
2022/11/06 04:37:50;;;;;;;15.32;2.17;;;10.90;99.90;;;;;;4145559;28;20704;-95
2022/11/06 04:40:51;;;;;;;14.07;1.90;;;10.90;99.90;;;;;;4113935;28;20248;-96
2022/11/06 04:43:04;;;;;;;11.80;2.22;;;10.80;99.90;;;;;;4143611;28;20221;-93
2022/11/06 04:45:13;;;;;;;9.98;2.25;;;10.90;99.90;;;;;;4131116;28;20155;-95
2022/11/06 04:47:17;;;;;;;8.85;2.00;;;10.90;99.90;;;;;;4130945;28;20173;-93
2022/11/06 04:49:24;;;;;;;9.00;1.52;;;10.80;99.90;;;;;;4129130;28;20178;-94
2022/11/06 04:51:50;;;;;;;8.23;1.75;;;10.60;99.90;;;;;;4128303;28;20172;-95
2022/11/06 04:53:52;;;;;;;10.57;1.80;;;10.70;99.90;;;;;;4130869;28;20182;-96
2022/11/06 04:55:59;;;;;;;10.32;1.80;;;10.70;99.90;;;;;;4131842;28;20174;-94
2022/11/06 04:58:07;;;;;;;7.40;1.88;;;10.80;99.90;;;;;;4146658;28;20173;-94
2022/11/06 05:00:16;;;;;;;7.47;2.20;;;10.80;99.90;;;;;;4161381;28;20240;-95
2022/11/06 05:02:25;;;;;;;9.18;1.70;;;10.90;99.90;;;;;;4160941;28;20246;-95
2022/11/06 05:04:32;;;;;;;7.68;1.90;;;11.10;99.90;;;;;;4164214;28;20179;-93
2022/11/06 05:06:33;;;;;;;14.13;2.40;;;11.10;99.90;;;;;;4163554;28;20199;-95
2022/11/06 05:08:34;;;;;;;8.18;1.80;;;10.90;99.90;;;;;;4129696;28;20185;-95
2022/11/06 05:10:35;;;;;;;13.38;2.47;;;10.90;99.90;;;;;;4146059;28;20236;-95
2022/11/06 05:12:36;;;;;;;11.73;2.10;;;11.00;99.90;;;;;;4177495;22;20833;-92
2022/11/06 05:14:37;;;;;;;12.27;2.17;;;10.90;99.90;;;;;;4134293;28;20232;-92
2022/11/06 05:16:38;;;;;;;9.00;2.17;;;11.10;99.90;;;;;;4134308;28;20178;-92
2022/11/06 05:18:38;;;;;;;12.15;2.13;;;11.20;99.90;;;;;;4134123;28;20558;-94
2022/11/06 05:20:39;;;;;;;14.90;2.13;;;11.10;99.90;;;;;;4150644;28;20177;-91
2022/11/06 05:22:59;;;;;;;11.93;2.50;;;11.10;99.90;;;;;;4150418;28;20246;-93
2022/11/06 05:25:00;;;;;;;12.18;2.72;;;11.10;99.90;;;;;;4134438;28;20177;-92
2022/11/06 05:27:00;;;;;;;9.18;2.20;;;11.20;99.90;;;;;;4150512;28;20220;-93
2022/11/06 05:29:01;;;;;;;11.30;2.20;;;11.30;99.90;;;;;;4134143;28;20181;-91
2022/11/06 05:31:02;;;;;;;10.90;1.80;;;11.20;99.90;;;;;;4150339;28;20177;-94
2022/11/06 05:33:03;;;;;;;10.80;2.85;;;11.20;99.90;;;;;;4133793;28;20186;-92
2022/11/06 05:35:04;;;;;;;12.23;2.50;;;11.20;99.90;;;;;;4134116;28;20219;-94
2022/11/06 05:37:04;;;;;;;12.68;1.85;;;11.30;99.90;;;;;;4150116;28;20184;-93
2022/11/06 05:39:05;;;;;;;11.13;2.78;;;11.30;99.90;;;;;;4134085;28;20178;-92
2022/11/06 05:41:06;;;;;;;16.42;2.42;;;11.20;99.90;;;;;;4150153;28;20188;-93
2022/11/06 05:43:06;;;;;;;10.52;1.95;;;11.30;99.90;;;;;;4133916;28;20765;-92
2022/11/06 05:45:08;;;;;;;10.85;1.80;;;11.20;99.90;;;;;;4150156;28;20180;-91
2022/11/06 05:47:09;;;;;;;7.18;2.13;;;11.20;99.90;;;;;;4133864;28;20165;-91
2022/11/06 05:49:10;;;;;;;9.55;2.35;;;11.30;99.90;;;;;;4133777;28;20180;-94
2022/11/06 05:51:10;;;;;;;9.88;2.20;;;11.40;99.90;;;;;;4149851;28;20169;-92
2022/11/06 05:53:11;;;;;;;11.90;2.20;;;11.30;99.90;;;;;;4133577;28;20229;-92
2022/11/06 05:55:12;;;;;;;13.55;2.20;;;11.40;99.90;;;;;;4133767;28;20170;-91
2022/11/06 05:57:13;;;;;;;9.77;2.40;;;11.60;99.90;;;;;;4150175;28;20228;-91
2022/11/06 05:59:14;;;;;;;13.43;1.70;;;11.70;99.90;;;;;;4150142;28;20184;-92
2022/11/06 06:01:14;;;;;;;10.10;1.90;;;11.70;99.90;;;;;;4150057;28;20173;-92
2022/11/06 06:03:15;;;;;;;9.70;2.05;;;11.70;99.90;;;;;;4149899;28;20640;-92
2022/11/06 06:05:16;;;;;;;8.07;1.90;;;11.60;99.90;;;;;;4150051;28;20256;-93
2022/11/06 06:07:17;;;;;;;10.65;1.88;;;11.60;99.90;;;;;;4165598;28;20184;-91
2022/11/06 06:09:18;;;;;;;4.47;1.20;;;11.70;99.90;;;;;;4149674;28;20572;-92
2022/11/06 06:11:18;;;;;;;11.07;1.98;;;11.70;99.90;;;;;;4149684;28;20208;-92
2022/11/06 06:13:19;;;;;;;6.93;1.58;;;11.60;99.90;;;;;;4149643;28;20628;-93
2022/11/06 06:15:20;;;;;;;12.23;2.60;;;11.60;99.90;;;;;;4149638;28;20177;-92
2022/11/06 06:17:21;;;;;;;12.10;1.80;;;11.50;99.90;;;;;;4149692;28;20239;-91
2022/11/06 06:19:21;;;;;;;8.35;1.45;;;11.60;99.90;;;;;;4149691;28;20169;-91
2022/11/06 06:21:22;;;;;;;7.93;1.15;;;11.60;99.90;;;;;;4149573;28;20176;-93
2022/11/06 06:23:23;;;;;;;9.65;1.77;;;11.60;99.90;;;;;;4133112;28;20217;-94
2022/11/06 06:25:25;;;;;;;6.80;1.60;;;11.60;99.90;;;;;;4149550;28;20530;-92
2022/11/06 06:27:26;;;;;;;13.02;1.70;;;11.80;99.90;;;;;;4149497;28;20231;-93
2022/11/06 06:29:27;;;;;;;9.70;1.70;;;11.80;99.90;;;;;;4149593;28;20259;-90
2022/11/06 06:31:27;;;;;;;4.53;1.20;;;11.80;99.90;;;;;;4133314;28;20173;-91
2022/11/06 06:33:28;;;;;;;7.65;2.03;;;11.80;99.90;;;;;;4132993;28;20284;-92
2022/11/06 06:35:29;;;;;;;9.48;1.65;;;11.80;99.90;;;;;;4133301;28;20178;-91
2022/11/06 06:37:29;;;;;;;9.50;1.83;;;11.80;99.90;;;;;;4149445;28;20227;-93
2022/11/06 06:39:30;;;;;;;7.93;1.83;;;11.90;99.90;;;;;;4133115;28;20177;-93
2022/11/06 06:41:32;;;;;;;7.25;1.45;;;11.90;99.90;;;;;;4133142;28;20178;-92
2022/11/06 06:43:33;;;;;;;8.48;1.80;;;12.10;99.90;;;;;;4148946;28;20232;-93
2022/11/06 06:45:34;;;;;;;7.65;1.40;;;12.10;99.90;;;;;;4149237;28;20160;-93
2022/11/06 06:47:34;;;;;;;5.57;1.40;;;12.30;99.90;;;;;;4132805;28;20183;-93
2022/11/06 06:49:35;;;;;;;5.68;1.23;;;12.20;99.90;;;;;;4149155;28;20187;-93
2022/11/06 06:51:36;;;;;;;8.07;1.67;;;12.10;99.90;;;;;;4132872;28;20179;-93
2022/11/06 06:53:37;;;;;;;9.25;1.55;;;12.30;99.90;;;;;;4132809;28;20177;-91
2022/11/06 06:55:39;;;;;;;9.68;1.90;;;12.20;99.90;;;;;;4132749;28;20177;-92
2022/11/06 06:57:40;;;;;;;8.70;2.17;;;12.10;99.90;;;;;;4132939;28;20169;-94
2022/11/06 06:59:40;;;;;;;11.93;2.25;;;12.10;99.90;;;;;;4132839;28;20630;-92
2022/11/06 07:01:41;;;;;;;8.95;2.00;;;12.30;99.90;;;;;;4132719;28;20166;-92
2022/11/06 07:03:42;;;;;;;7.40;1.30;;;12.10;99.90;;;;;;4133449;28;20212;-91
2022/11/06 07:05:43;;;;;;;11.07;1.75;;;12.20;99.90;;;;;;4132579;28;20657;-95
2022/11/06 07:07:43;;;;;;;12.35;1.88;;;12.10;99.90;;;;;;4132812;28;20181;-90
2022/11/06 07:09:44;;;;;;;7.18;1.35;;;12.20;99.90;;;;;;4148909;28;20173;-90
2022/11/06 07:11:45;;;;;;;9.02;1.50;;;12.20;99.90;;;;;;4132926;28;20201;-91
2022/11/06 07:13:45;;;;;;;6.28;1.50;;;12.10;99.90;;;;;;4149035;28;20187;-92
2022/11/06 07:15:46;;;;;;;8.45;1.50;;;12.10;99.90;;;;;;4132764;28;20196;-91
2022/11/06 07:17:47;;;;;;;8.88;1.27;;;12.20;99.90;;;;;;4148892;28;20204;-93
2022/11/06 07:19:47;;;;;;;10.07;1.70;;;12.30;99.90;;;;;;4132181;28;20647;-94
2022/11/06 07:21:51;;;;;;;10.43;1.80;;;12.30;99.90;;;;;;4132407;28;20170;-92
2022/11/06 07:23:52;;;;;;;7.10;1.38;;;12.30;99.90;;;;;;4148545;28;20315;-92
2022/11/06 07:25:53;;;;;;;13.93;2.20;;;12.30;99.90;;;;;;4132144;28;20316;-92
2022/11/06 07:27:58;;;;;;;7.28;1.33;;;12.30;99.90;;;;;;4132449;28;20184;-92
2022/11/06 07:29:59;;;;;;;7.50;1.33;;;12.30;99.90;;;;;;4152560;28;20215;-93
2022/11/06 07:32:00;;;;;;;7.70;1.95;;;12.30;99.90;;;;;;4133875;28;20201;-93
2022/11/06 07:34:00;;;;;;;6.93;1.55;;;12.50;99.90;;;;;;4148773;28;20161;-93
2022/11/06 07:36:07;;;;;;;10.23;1.88;;;12.60;99.90;;;;;;4132461;28;20213;-92
2022/11/06 07:38:08;;;;;;;10.43;1.58;;;12.70;99.90;;;;;;4148575;28;20665;-94
2022/11/06 07:40:09;;;;;;;9.63;1.77;;;12.70;99.90;;;;;;4148347;28;20183;-93
2022/11/06 07:42:10;;;;;;;7.55;1.30;;;12.50;99.90;;;;;;4148364;28;20605;-92
2022/11/06 07:44:12;;;;;;;9.40;1.95;;;12.60;99.90;;;;;;4148921;28;20165;-90
2022/11/06 07:46:12;;;;;;;8.00;1.73;;;12.60;99.90;;;;;;4164680;28;20180;-91
2022/11/06 07:48:13;;;;;;;5.47;1.55;;;12.70;99.90;;;;;;4148188;28;20180;-92
2022/11/06 07:50:14;;;;;;;8.02;1.60;;;12.50;99.90;;;;;;4148493;28;20176;-93
2022/11/06 07:52:14;;;;;;;4.55;1.40;;;12.60;99.90;;;;;;4148319;28;20288;-92
2022/11/06 07:54:15;;;;;;;12.13;2.13;;;12.60;99.90;;;;;;4148343;28;20169;-92
2022/11/06 07:56:16;;;;;;;12.45;1.75;;;12.50;99.90;;;;;;4148721;28;20344;-94
2022/11/06 07:58:17;;;;;;;10.20;1.60;;;12.60;99.90;;;;;;4148679;28;20678;-92
2022/11/06 08:00:19;;;;;;;7.60;1.17;;;12.60;99.90;;;;;;4148022;28;20179;-92
2022/11/06 08:02:20;;;;;;;4.50;1.08;;;12.50;99.90;;;;;;4148473;28;20205;-94
2022/11/06 08:04:21;;;;;;;8.13;1.27;;;12.50;99.90;;;;;;4148571;28;20514;-96
2022/11/06 08:06:22;;;;;;;10.35;1.38;;;12.60;99.90;;;;;;4132143;28;20224;-92
2022/11/06 08:08:22;;;;;;;10.57;1.77;;;12.50;99.90;;;;;;4148183;28;20169;-92
2022/11/06 08:10:23;;;;;;;8.13;1.42;;;12.60;99.90;;;;;;4132055;28;20178;-96
2022/11/06 08:12:24;;;;;;;9.15;1.50;;;12.60;99.90;;;;;;4148152;28;20204;-93
2022/11/06 08:14:25;;;;;;;5.47;1.00;;;12.60;99.90;;;;;;4148709;28;20161;-95
2022/11/06 08:16:27;;;;;;;3.67;1.10;;;12.60;99.90;;;;;;4148222;28;20180;-91
2022/11/06 08:18:27;;;;;;;8.50;1.35;;;12.70;99.90;;;;;;4148458;28;20161;-91
2022/11/06 08:20:28;;;;;;;5.97;1.25;;;12.90;99.90;;;;;;4164610;28;20184;-94
2022/11/06 08:22:29;;;;;;;8.85;1.15;;;12.80;99.90;;;;;;4148981;28;20209;-94
2022/11/06 08:24:30;;;;;;;5.28;1.23;;;12.80;99.90;;;;;;4148455;28;20262;-92
2022/11/06 08:26:31;;;;;;;7.68;1.40;;;12.90;99.90;;;;;;4148208;28;20175;-94
2022/11/06 08:28:31;;;;;;;7.38;1.17;;;12.90;99.90;;;;;;4132030;28;20174;-90
2022/11/06 08:30:32;;;;;;;8.20;1.58;;;12.90;99.90;;;;;;4148020;28;20172;-94
2022/11/06 08:32:33;;;;;;;4.75;0.90;;;12.80;99.90;;;;;;4135000;28;20193;-94
2022/11/06 08:34:35;;;;;;;6.75;1.40;;;12.80;99.90;;;;;;4151201;28;20173;-93
2022/11/06 08:36:39;;;;;;;5.93;0.98;;;12.80;99.90;;;;;;4151508;28;20263;-93
2022/11/06 08:38:40;;;;;;;7.50;1.17;;;12.80;99.90;;;;;;4151331;28;20171;-93
2022/11/06 08:40:40;;;;;;;14.15;1.40;;;12.70;99.90;;;;;;4151055;28;20263;-91
2022/11/06 08:42:41;;;;;;;11.77;1.38;;;12.80;99.90;;;;;;4150912;28;20212;-94
2022/11/06 08:44:42;;;;;;;5.88;0.93;;;12.90;99.90;;;;;;4151162;28;20184;-93
2022/11/06 08:46:43;;;;;;;5.43;1.05;;;13.10;99.90;;;;;;4151230;28;20169;-92
2022/11/06 08:48:44;;;;;;;4.82;1.17;;;13.10;99.90;;;;;;4167271;28;20172;-93
2022/11/06 08:50:45;;;;;;;6.85;1.30;;;13.10;99.90;;;;;;4151117;28;20247;-95
2022/11/06 08:52:45;;;;;;;7.50;1.35;;;13.10;99.90;;;;;;4150872;28;20240;-92
2022/11/06 08:54:46;;;;;;;4.60;1.10;;;13.20;99.90;;;;;;4151140;28;20181;-92
2022/11/06 08:56:47;;;;;;;7.07;1.20;;;13.20;99.90;;;;;;4151022;28;20176;-94
2022/11/06 08:58:48;;;;;;;9.73;1.63;;;13.30;99.90;;;;;;4150508;28;20183;-92
2022/11/06 09:00:49;;;;;;;7.40;1.35;;;13.30;99.90;;;;;;4150730;28;20177;-92
2022/11/06 09:02:50;;;;;;;4.97;1.13;;;13.10;99.90;;;;;;4150795;28;20213;-91
2022/11/06 09:04:50;;;;;;;13.95;1.50;;;13.10;99.90;;;;;;4135028;28;20169;-91
2022/11/06 09:06:51;;;;;;;9.95;1.40;;;13.20;99.90;;;;;;4150844;28;20172;-94
2022/11/06 09:08:52;;;;;;;5.32;1.33;;;13.30;99.90;;;;;;4150832;28;20519;-93
2022/11/06 09:10:53;;;;;;;8.68;2.17;;;13.20;99.90;;;;;;4150703;28;20196;-92
2022/11/06 09:12:54;;;;;;;7.07;1.48;;;13.20;99.90;;;;;;4150808;28;20255;-92
2022/11/06 09:14:55;;;;;;;10.63;1.25;;;13.40;99.90;;;;;;4150668;28;20180;-92
2022/11/06 09:16:57;;;;;;;6.70;1.08;;;13.40;99.90;;;;;;4134358;28;20208;-91
2022/11/06 09:18:58;;;;;;;4.80;1.20;;;13.50;99.90;;;;;;4134621;28;20618;-93
2022/11/06 09:20:58;;;;;;;7.63;1.10;;;13.50;99.90;;;;;;4150872;28;20179;-93
2022/11/06 09:23:04;;;;;;;7.15;1.15;;;13.50;99.90;;;;;;4150477;28;20360;-92
2022/11/06 09:25:05;;;;;;;4.93;1.13;;;13.50;99.90;;;;;;4150819;28;20173;-91
2022/11/06 09:27:06;;;;;;;5.30;1.17;;;13.60;99.90;;;;;;4150585;28;20616;-94
2022/11/06 09:29:07;;;;;;;6.80;1.20;;;13.50;99.90;;;;;;4150745;28;20260;-93
2022/11/06 09:31:08;;;;;;;9.50;1.23;;;13.50;99.90;;;;;;4150476;28;20172;-94
2022/11/06 09:33:09;;;;;;;4.55;1.20;;;13.70;99.90;;;;;;4134111;28;20205;-92
2022/11/06 09:35:09;;;;;;;7.32;1.30;;;13.60;99.90;;;;;;4150478;28;20187;-92
2022/11/06 09:37:10;;;;;;;4.20;1.08;;;13.70;99.90;;;;;;4133965;28;20177;-92
2022/11/06 09:39:12;;;;;;;4.18;0.98;;;13.70;99.90;;;;;;4150282;28;20177;-92
2022/11/06 09:41:26;;;;;;;8.95;1.38;;;13.90;99.90;;;;;;4150110;28;20177;-92
2022/11/06 09:43:49;;;;;;;10.38;1.55;;;14.10;99.90;;;;;;4149774;28;20251;-92
2022/11/06 09:45:51;;;;;;;6.80;1.48;;;14.10;99.90;;;;;;4133863;28;20173;-92
2022/11/06 09:48:12;;;;;;;10.52;1.58;;;14.50;99.90;;;;;;4150179;28;20660;-91
2022/11/06 09:50:19;;;;;;;3.65;0.90;;;14.40;99.90;;;;;;4150026;28;20173;-92
2022/11/06 09:52:32;;;;;;;4.38;1.17;;;14.10;99.90;;;;;;4149900;28;20209;-91
2022/11/06 09:54:53;;;;;;;8.45;1.40;;;13.90;99.90;;;;;;4150076;28;20175;-92
2022/11/06 09:57:02;;;;;;;8.55;1.40;;;13.90;99.90;;;;;;4149890;28;20180;-93
2022/11/06 09:59:07;;;;;;;9.93;1.40;;;13.80;99.90;;;;;;4133459;28;20173;-92
2022/11/06 10:01:14;;;;;;;7.15;1.30;;;13.50;99.90;;;;;;4150081;28;20203;-92
2022/11/06 10:03:44;;;;;;;6.65;1.40;;;13.50;99.90;;;;;;4149969;28;20713;-91
2022/11/06 10:05:46;;;;;;;7.30;1.33;;;13.70;99.90;;;;;;4150787;28;20173;-91
2022/11/06 10:07:51;;;;;;;10.32;1.67;;;14.00;99.90;;;;;;4166362;28;20207;-89
2022/11/06 10:09:52;;;;;;;9.55;1.17;;;14.30;99.90;;;;;;4149758;28;20173;-93
2022/11/06 10:12:07;;;;;;;11.00;1.38;;;14.30;99.90;;;;;;4166244;28;20171;-92
2022/11/06 10:14:33;;;;;;;9.80;1.60;;;14.30;99.90;;;;;;4149797;28;20589;-88
2022/11/06 10:16:51;;;;;;;12.20;1.52;;;14.30;99.90;;;;;;4133499;28;20202;-92
2022/11/06 10:19:14;;;;;;;9.13;1.60;;;14.30;99.90;;;;;;4133668;28;20251;-89
2022/11/06 10:21:24;;;;;;;10.15;1.30;;;14.20;99.90;;;;;;4149654;28;20169;-91
2022/11/06 10:23:44;;;;;;;9.75;1.20;;;14.30;99.90;;;;;;4149599;28;20278;-91
2022/11/06 10:26:01;;;;;;;10.35;1.38;;;14.20;99.90;;;;;;4149927;28;20589;-87
2022/11/06 10:28:12;;;;;;;6.80;1.67;;;14.10;99.90;;;;;;4149541;28;20218;-88
2022/11/06 10:30:16;;;;;;;9.55;1.90;;;14.10;99.90;;;;;;4165795;28;20167;-93
2022/11/06 10:32:59;;;;;;;6.93;1.48;;;14.00;99.90;;;;;;4149842;28;20208;-87
2022/11/06 10:35:14;;;;;;;11.27;1.55;;;14.00;99.90;;;;;;4150175;28;20176;-90
2022/11/06 10:37:20;;;;;;;9.43;1.40;;;14.00;99.90;;;;;;4149529;28;21184;-91
2022/11/06 10:39:25;;;;;;;9.60;1.33;;;14.10;99.90;;;;;;4149508;28;20191;-87
2022/11/06 10:41:32;;;;;;;7.38;1.38;;;14.10;99.90;;;;;;4149361;28;20180;-93
2022/11/06 10:43:45;;;;;;;9.88;1.55;;;13.80;99.90;;;;;;4150159;28;20212;-89
2022/11/06 10:45:49;;;;;;;8.18;1.45;;;13.70;99.90;;;;;;4149493;28;20284;-88
2022/11/06 10:47:55;;;;;;;5.00;1.50;;;13.80;99.90;;;;;;4149422;28;20247;-88
2022/11/06 10:50:01;;;;;;;6.95;1.40;;;13.70;99.90;;;;;;4149336;28;20573;-90
2022/11/06 10:52:11;;;;;;;6.47;1.65;;;13.90;99.90;;;;;;4149270;28;20192;-88
2022/11/06 10:54:21;;;;;;;9.30;1.63;;;13.70;99.90;;;;;;4132472;28;20217;-92
2022/11/06 10:56:21;;;;;;;9.43;1.30;;;13.80;99.90;;;;;;4132994;28;20605;-90
2022/11/06 10:58:29;;;;;;;5.50;1.23;;;13.80;99.90;;;;;;4149301;28;20172;-91
2022/11/06 11:00:31;;;;;;;11.02;1.52;;;13.70;99.90;;;;;;4149182;28;20173;-89
2022/11/06 11:02:39;;;;;;;7.88;1.40;;;13.50;99.90;;;;;;4148996;28;20220;-90
2022/11/06 11:04:42;;;;;;;7.30;1.63;;;13.40;99.90;;;;;;4149442;28;20180;-88
2022/11/06 11:06:43;;;;;;;6.95;1.27;;;13.50;99.90;;;;;;4133106;28;20177;-91
2022/11/06 11:08:46;;;;;;;10.77;1.52;;;13.60;99.90;;;;;;4149110;28;20220;-90
2022/11/06 11:10:49;;;;;;;5.68;0.85;;;13.50;99.90;;;;;;4148702;28;20180;-91
2022/11/06 11:16:13;;;;;;;;;;;;;;;;;;;;;
2022/11/06 11:21:41;;;;;;;;;;;;;;;;;;;;;